sensor_id;sensor_type;location;lat;lon;timestamp;pressure;altitude;pressure_sealevel;temperature;humidity
50774;BME280;36745;48.544;8.918;2023-05-23T00:01:07;97203.00;;;14.44;100.00
50774;BME280;36745;48.544;8.918;2023-05-23T00:04:27;97209.19;;;14.39;100.00
50774;BME280;36745;48.544;8.918;2023-05-23T00:07:47;97207.97;;;14.22;100.00
50774;BME280;36745;48.544;8.918;2023-05-23T00:11:07;97211.38;;;14.17;100.00
50774;BME280;36745;48.544;8.918;2023-05-23T00:14:27;97212.00;;;14.12;100.00
50774;BME280;36745;48.544;8.918;2023-05-23T00:17:49;97210.78;;;14.04;100.00
50774;BME280;36745;48.544;8.918;2023-05-23T00:21:10;97224.03;;;14.00;100.00
50774;BME280;36745;48.544;8.918;2023-05-23T00:24:31;97218.22;;;13.88;100.00
50774;BME280;36745;48.544;8.918;2023-05-23T00:27:51;97209.47;;;13.81;100.00
50774;BME280;36745;48.544;8.918;2023-05-23T00:31:11;97215.16;;;13.86;100.00
50774;BME280;36745;48.544;8.918;2023-05-23T00:34:31;97210.03;;;13.94;100.00
50774;BME280;36745;48.544;8.918;2023-05-23T00:37:51;97220.03;;;14.01;100.00
50774;BME280;36745;48.544;8.918;2023-05-23T00:41:11;97212.03;;;14.03;100.00
50774;BME280;36745;48.544;8.918;2023-05-23T00:44:30;97212.97;;;14.00;100.00
50774;BME280;36745;48.544;8.918;2023-05-23T00:47:50;97222.50;;;13.99;100.00
50774;BME280;36745;48.544;8.918;2023-05-23T00:51:10;97219.72;;;13.99;100.00
50774;BME280;36745;48.544;8.918;2023-05-23T00:54:30;97222.50;;;13.99;100.00
50774;BME280;36745;48.544;8.918;2023-05-23T00:57:52;97230.53;;;13.97;100.00
50774;BME280;36745;48.544;8.918;2023-05-23T01:01:14;97217.13;;;13.95;100.00
50774;BME280;36745;48.544;8.918;2023-05-23T01:04:34;97217.59;;;13.94;100.00
50774;BME280;36745;48.544;8.918;2023-05-23T01:07:54;97222.34;;;13.93;100.00
50774;BME280;36745;48.544;8.918;2023-05-23T01:11:39;97223.75;;;13.88;100.00
50774;BME280;36745;48.544;8.918;2023-05-23T01:15:10;97234.25;;;13.75;100.00
50774;BME280;36745;48.544;8.918;2023-05-23T01:21:52;97229.63;;;13.63;100.00
50774;BME280;36745;48.544;8.918;2023-05-23T01:25:23;97231.78;;;13.50;100.00
50774;BME280;36745;48.544;8.918;2023-05-23T01:28:49;97229.63;;;13.45;100.00
50774;BME280;36745;48.544;8.918;2023-05-23T01:32:11;97237.16;;;13.44;100.00
50774;BME280;36745;48.544;8.918;2023-05-23T01:35:32;97238.88;;;13.51;100.00
50774;BME280;36745;48.544;8.918;2023-05-23T01:38:53;97236.41;;;13.53;100.00
50774;BME280;36745;48.544;8.918;2023-05-23T01:42:13;97237.31;;;13.68;100.00
50774;BME280;36745;48.544;8.918;2023-05-23T01:45:33;97241.31;;;13.67;100.00
50774;BME280;36745;48.544;8.918;2023-05-23T01:48:54;97241.78;;;13.75;100.00
50774;BME280;36745;48.544;8.918;2023-05-23T01:52:15;97248.25;;;13.72;100.00
50774;BME280;36745;48.544;8.918;2023-05-23T01:55:35;97253.94;;;13.77;100.00
50774;BME280;36745;48.544;8.918;2023-05-23T01:58:55;97250.84;;;13.84;100.00
50774;BME280;36745;48.544;8.918;2023-05-23T02:02:14;97252.22;;;13.89;100.00
50774;BME280;36745;48.544;8.918;2023-05-23T02:05:34;97250.22;;;13.99;100.00
50774;BME280;36745;48.544;8.918;2023-05-23T02:08:54;97246.22;;;14.00;100.00
50774;BME280;36745;48.544;8.918;2023-05-23T02:12:14;97248.06;;;14.03;100.00
50774;BME280;36745;48.544;8.918;2023-05-23T02:15:33;97248.03;;;14.12;100.00
50774;BME280;36745;48.544;8.918;2023-05-23T02:18:53;97245.09;;;14.24;100.00
50774;BME280;36745;48.544;8.918;2023-05-23T02:22:15;97247.09;;;14.24;100.00
50774;BME280;36745;48.544;8.918;2023-05-23T02:25:34;97241.19;;;14.31;100.00
50774;BME280;36745;48.544;8.918;2023-05-23T02:28:54;97238.13;;;14.38;100.00
50774;BME280;36745;48.544;8.918;2023-05-23T02:32:14;97242.41;;;14.48;100.00
50774;BME280;36745;48.544;8.918;2023-05-23T02:35:34;97243.66;;;14.47;100.00
50774;BME280;36745;48.544;8.918;2023-05-23T02:38:54;97247.50;;;14.50;100.00
50774;BME280;36745;48.544;8.918;2023-05-23T02:42:13;97257.81;;;14.49;100.00
50774;BME280;36745;48.544;8.918;2023-05-23T02:45:33;97258.56;;;14.59;100.00
50774;BME280;36745;48.544;8.918;2023-05-23T02:48:53;97249.94;;;14.57;100.00
50774;BME280;36745;48.544;8.918;2023-05-23T02:52:13;97251.91;;;14.65;100.00
50774;BME280;36745;48.544;8.918;2023-05-23T02:55:33;97246.66;;;14.67;100.00
50774;BME280;36745;48.544;8.918;2023-05-23T02:58:53;97254.34;;;14.73;100.00
50774;BME280;36745;48.544;8.918;2023-05-23T03:02:13;97248.78;;;14.73;100.00
50774;BME280;36745;48.544;8.918;2023-05-23T03:05:33;97246.66;;;14.67;100.00
50774;BME280;36745;48.544;8.918;2023-05-23T03:08:53;97249.44;;;14.67;100.00
50774;BME280;36745;48.544;8.918;2023-05-23T03:12:12;97247.56;;;14.74;100.00
50774;BME280;36745;48.544;8.918;2023-05-23T03:15:32;97251.41;;;14.76;100.00
50774;BME280;36745;48.544;8.918;2023-05-23T03:18:52;97245.72;;;14.70;100.00
50774;BME280;36745;48.544;8.918;2023-05-23T03:22:12;97249.38;;;14.77;100.00
50774;BME280;36745;48.544;8.918;2023-05-23T03:25:32;97254.13;;;14.85;100.00
50774;BME280;36745;48.544;8.918;2023-05-23T03:28:51;97259.50;;;14.89;100.00
50774;BME280;36745;48.544;8.918;2023-05-23T03:32:11;97254.56;;;14.93;100.00
50774;BME280;36745;48.544;8.918;2023-05-23T03:35:31;97255.31;;;14.93;100.00
50774;BME280;36745;48.544;8.918;2023-05-23T03:38:51;97258.22;;;14.99;100.00
50774;BME280;36745;48.544;8.918;2023-05-23T03:42:11;97262.81;;;15.02;100.00
50774;BME280;36745;48.544;8.918;2023-05-23T03:45:31;97271.78;;;14.97;100.00
50774;BME280;36745;48.544;8.918;2023-05-23T03:48:51;97268.38;;;15.02;100.00
50774;BME280;36745;48.544;8.918;2023-05-23T03:52:11;97271.47;;;15.04;100.00
50774;BME280;36745;48.544;8.918;2023-05-23T03:55:31;97269.91;;;15.03;100.00
50774;BME280;36745;48.544;8.918;2023-05-23T03:58:51;97266.50;;;15.08;100.00
50774;BME280;36745;48.544;8.918;2023-05-23T04:02:11;97266.31;;;15.11;100.00
50774;BME280;36745;48.544;8.918;2023-05-23T04:05:31;97262.28;;;15.12;100.00
50774;BME280;36745;48.544;8.918;2023-05-23T04:08:50;97259.63;;;15.18;100.00
50774;BME280;36745;48.544;8.918;2023-05-23T04:12:10;97258.41;;;15.19;100.00
50774;BME280;36745;48.544;8.918;2023-05-23T04:15:30;97260.25;;;15.22;100.00
50774;BME280;36745;48.544;8.918;2023-05-23T04:18:52;97259.94;;;15.20;100.00
50774;BME280;36745;48.544;8.918;2023-05-23T04:22:12;97265.81;;;15.22;100.00
50774;BME280;36745;48.544;8.918;2023-05-23T04:25:32;97260.66;;;15.30;100.00
50774;BME280;36745;48.544;8.918;2023-05-23T04:28:55;97264.00;;;15.34;100.00
50774;BME280;36745;48.544;8.918;2023-05-23T04:32:15;97269.09;;;15.35;100.00
50774;BME280;36745;48.544;8.918;2023-05-23T04:35:40;97270.63;;;15.36;100.00
50774;BME280;36745;48.544;8.918;2023-05-23T04:39:00;97275.88;;;15.34;100.00
50774;BME280;36745;48.544;8.918;2023-05-23T04:42:20;97275.63;;;15.32;100.00
50774;BME280;36745;48.544;8.918;2023-05-23T04:45:42;97274.66;;;15.35;100.00
50774;BME280;36745;48.544;8.918;2023-05-23T04:49:02;97283.28;;;15.37;100.00
50774;BME280;36745;48.544;8.918;2023-05-23T04:52:22;97278.31;;;15.41;100.00
50774;BME280;36745;48.544;8.918;2023-05-23T04:55:42;97279.22;;;15.47;100.00
50774;BME280;36745;48.544;8.918;2023-05-23T04:59:02;97285.69;;;15.53;100.00
50774;BME280;36745;48.544;8.918;2023-05-23T05:02:21;97280.91;;;15.54;100.00
50774;BME280;36745;48.544;8.918;2023-05-23T05:05:41;97294.28;;;15.56;100.00
50774;BME280;36745;48.544;8.918;2023-05-23T05:09:01;97288.56;;;15.59;100.00
50774;BME280;36745;48.544;8.918;2023-05-23T05:12:21;97304.75;;;15.61;100.00
50774;BME280;36745;48.544;8.918;2023-05-23T05:15:41;97309.06;;;15.62;100.00
50774;BME280;36745;48.544;8.918;2023-05-23T05:19:00;97309.38;;;15.64;100.00
50774;BME280;36745;48.544;8.918;2023-05-23T05:22:20;97306.97;;;15.71;100.00
50774;BME280;36745;48.544;8.918;2023-05-23T05:25:41;97306.53;;;15.73;100.00
50774;BME280;36745;48.544;8.918;2023-05-23T05:29:01;97307.75;;;15.72;100.00
50774;BME280;36745;48.544;8.918;2023-05-23T05:32:21;97304.81;;;15.75;100.00
50774;BME280;36745;48.544;8.918;2023-05-23T05:35:41;97304.94;;;15.81;100.00
50774;BME280;36745;48.544;8.918;2023-05-23T05:39:00;97308.59;;;15.87;100.00
50774;BME280;36745;48.544;8.918;2023-05-23T05:42:21;97306.66;;;15.93;100.00
50774;BME280;36745;48.544;8.918;2023-05-23T05:45:40;97311.84;;;16.00;100.00
50774;BME280;36745;48.544;8.918;2023-05-23T05:49:00;97314.16;;;16.02;100.00
50774;BME280;36745;48.544;8.918;2023-05-23T05:52:21;97315.97;;;16.05;100.00
50774;BME280;36745;48.544;8.918;2023-05-23T05:55:41;97315.16;;;16.13;100.00
50774;BME280;36745;48.544;8.918;2023-05-23T05:59:01;97312.94;;;16.17;100.00
50774;BME280;36745;48.544;8.918;2023-05-23T06:02:21;97316.03;;;16.19;100.00
50774;BME280;36745;48.544;8.918;2023-05-23T06:05:40;97326.50;;;16.24;100.00
50774;BME280;36745;48.544;8.918;2023-05-23T06:09:00;97316.50;;;16.32;100.00
50774;BME280;36745;48.544;8.918;2023-05-23T06:12:20;97314.97;;;16.31;100.00
50774;BME280;36745;48.544;8.918;2023-05-23T06:15:40;97317.47;;;16.29;100.00
50774;BME280;36745;48.544;8.918;2023-05-23T06:19:00;97316.50;;;16.32;100.00
50774;BME280;36745;48.544;8.918;2023-05-23T06:22:20;97329.75;;;16.37;100.00
50774;BME280;36745;48.544;8.918;2023-05-23T06:25:40;97328.13;;;16.46;100.00
50774;BME280;36745;48.544;8.918;2023-05-23T06:28:59;97327.25;;;16.54;100.00
50774;BME280;36745;48.544;8.918;2023-05-23T06:32:19;97331.41;;;16.59;100.00
50774;BME280;36745;48.544;8.918;2023-05-23T06:35:39;97325.00;;;16.67;100.00
50774;BME280;36745;48.544;8.918;2023-05-23T06:38:59;97329.56;;;16.56;100.00
50774;BME280;36745;48.544;8.918;2023-05-23T06:42:19;97342.47;;;16.68;100.00
50774;BME280;36745;48.544;8.918;2023-05-23T06:45:38;97338.03;;;16.76;100.00
50774;BME280;36745;48.544;8.918;2023-05-23T06:48:58;97332.47;;;16.76;100.00
50774;BME280;36745;48.544;8.918;2023-05-23T06:52:18;97339.38;;;16.81;100.00
50774;BME280;36745;48.544;8.918;2023-05-23T06:55:38;97343.22;;;16.83;100.00
50774;BME280;36745;48.544;8.918;2023-05-23T06:58:58;97347.63;;;16.75;100.00
50774;BME280;36745;48.544;8.918;2023-05-23T07:02:17;97347.06;;;16.71;100.00
50774;BME280;36745;48.544;8.918;2023-05-23T07:05:37;97357.31;;;16.65;100.00
50774;BME280;36745;48.544;8.918;2023-05-23T07:08:57;97354.53;;;16.65;100.00
50774;BME280;36745;48.544;8.918;2023-05-23T07:12:17;97357.31;;;16.65;100.00
50774;BME280;36745;48.544;8.918;2023-05-23T07:15:37;97355.97;;;16.75;100.00
50774;BME280;36745;48.544;8.918;2023-05-23T07:19:00;97357.41;;;16.85;100.00
50774;BME280;36745;48.544;8.918;2023-05-23T07:22:21;97360.66;;;16.98;100.00
50774;BME280;36745;48.544;8.918;2023-05-23T07:25:41;97370.06;;;17.01;100.00
50774;BME280;36745;48.544;8.918;2023-05-23T07:29:01;97374.91;;;17.00;100.00
50774;BME280;36745;48.544;8.918;2023-05-23T07:32:21;97381.72;;;16.99;100.00
50774;BME280;36745;48.544;8.918;2023-05-23T07:35:44;97380.47;;;17.00;100.00
50774;BME280;36745;48.544;8.918;2023-05-23T07:39:07;97382.47;;;16.85;100.00
50774;BME280;36745;48.544;8.918;2023-05-23T07:42:33;97388.91;;;16.91;100.00
50774;BME280;36745;48.544;8.918;2023-05-23T07:45:58;97387.47;;;16.81;100.00
50774;BME280;36745;48.544;8.918;2023-05-23T07:49:18;97387.56;;;16.72;100.00
50774;BME280;36745;48.544;8.918;2023-05-23T07:52:39;97386.94;;;16.53;100.00
50774;BME280;36745;48.544;8.918;2023-05-23T07:56:02;97393.06;;;16.28;100.00
50774;BME280;36745;48.544;8.918;2023-05-23T07:59:25;97391.03;;;16.28;100.00
50774;BME280;36745;48.544;8.918;2023-05-23T08:02:45;97384.91;;;16.24;100.00
50774;BME280;36745;48.544;8.918;2023-05-23T08:06:08;97391.31;;;16.30;100.00
50774;BME280;36745;48.544;8.918;2023-05-23T08:09:28;97390.19;;;16.37;100.00
50774;BME280;36745;48.544;8.918;2023-05-23T08:12:48;97394.63;;;16.44;100.00
50774;BME280;36745;48.544;8.918;2023-05-23T08:16:08;97401.31;;;16.37;100.00
50774;BME280;36745;48.544;8.918;2023-05-23T08:19:28;97408.22;;;16.42;100.00
50774;BME280;36745;48.544;8.918;2023-05-23T08:22:47;97406.97;;;16.43;100.00
50774;BME280;36745;48.544;8.918;2023-05-23T08:26:07;97412.94;;;16.35;100.00
50774;BME280;36745;48.544;8.918;2023-05-23T08:29:27;97410.34;;;16.47;100.00
50774;BME280;36745;48.544;8.918;2023-05-23T08:32:46;97405.88;;;16.64;100.00
50774;BME280;36745;48.544;8.918;2023-05-23T08:36:06;97419.75;;;16.49;100.00
50774;BME280;36745;48.544;8.918;2023-05-23T08:39:26;97426.19;;;16.41;99.89
50774;BME280;36745;48.544;8.918;2023-05-23T08:42:47;97422.06;;;16.51;100.00
50774;BME280;36745;48.544;8.918;2023-05-23T08:46:07;97431.81;;;16.31;98.09
50774;BME280;36745;48.544;8.918;2023-05-23T08:49:27;97436.13;;;16.32;99.20
50774;BME280;36745;48.544;8.918;2023-05-23T08:52:54;97437.56;;;16.28;97.40
50774;BME280;36745;48.544;8.918;2023-05-23T08:56:15;97441.38;;;16.30;97.62
50774;BME280;36745;48.544;8.918;2023-05-23T08:59:35;97442.00;;;16.34;97.38
50774;BME280;36745;48.544;8.918;2023-05-23T09:02:56;97443.72;;;16.47;97.33
50774;BME280;36745;48.544;8.918;2023-05-23T09:06:19;97444.34;;;16.51;95.53
50774;BME280;36745;48.544;8.918;2023-05-23T09:09:40;97447.38;;;16.53;95.51
50774;BME280;36745;48.544;8.918;2023-05-23T09:12:59;97452.69;;;16.51;95.38
50774;BME280;36745;48.544;8.918;2023-05-23T09:16:19;97458.78;;;16.64;94.15
50774;BME280;36745;48.544;8.918;2023-05-23T09:19:40;97461.91;;;16.57;94.14
50774;BME280;36745;48.544;8.918;2023-05-23T09:22:59;97452.75;;;16.80;94.31
50774;BME280;36745;48.544;8.918;2023-05-23T09:26:20;97452.19;;;16.91;93.00
50774;BME280;36745;48.544;8.918;2023-05-23T09:29:39;97465.72;;;16.98;93.05
50774;BME280;36745;48.544;8.918;2023-05-23T09:32:59;97464.59;;;17.04;91.93
50774;BME280;36745;48.544;8.918;2023-05-23T09:36:20;97467.44;;;16.95;90.42
50774;BME280;36745;48.544;8.918;2023-05-23T09:39:45;97471.88;;;16.87;89.92
50774;BME280;36745;48.544;8.918;2023-05-23T09:43:04;97472.03;;;16.69;87.55
50774;BME280;36745;48.544;8.918;2023-05-23T09:46:27;97477.50;;;16.40;89.49
50774;BME280;36745;48.544;8.918;2023-05-23T09:49:48;97481.66;;;16.68;88.63
50774;BME280;36745;48.544;8.918;2023-05-23T09:53:09;97475.97;;;16.77;89.04
50774;BME280;36745;48.544;8.918;2023-05-23T09:56:29;97485.03;;;17.01;88.87
50774;BME280;36745;48.544;8.918;2023-05-23T09:59:52;97476.28;;;17.08;86.85
50774;BME280;36745;48.544;8.918;2023-05-23T10:03:15;97481.09;;;17.23;86.25
50774;BME280;36745;48.544;8.918;2023-05-23T10:06:49;97473.41;;;17.47;86.13
50774;BME280;36745;48.544;8.918;2023-05-23T10:10:11;97480.31;;;17.22;82.33
50774;BME280;36745;48.544;8.918;2023-05-23T10:13:31;97474.94;;;17.04;83.55
50774;BME280;36745;48.544;8.918;2023-05-23T10:20:25;97480.69;;;17.44;84.87
50774;BME280;36745;48.544;8.918;2023-05-23T10:23:46;97483.97;;;17.43;83.23
50774;BME280;36745;48.544;8.918;2023-05-23T10:27:06;97481.50;;;17.15;82.88
50774;BME280;36745;48.544;8.918;2023-05-23T10:30:27;97482.44;;;17.12;82.90
50774;BME280;36745;48.544;8.918;2023-05-23T10:33:53;97478.59;;;17.25;82.99
50774;BME280;36745;48.544;8.918;2023-05-23T10:37:22;97475.91;;;17.15;82.33
50774;BME280;36745;48.544;8.918;2023-05-23T10:47:39;97471.25;;;17.71;80.97
50774;BME280;36745;48.544;8.918;2023-05-23T10:51:13;97462.09;;;17.85;80.38
50774;BME280;36745;48.544;8.918;2023-05-23T10:54:45;97465.84;;;17.82;80.35
50774;BME280;36745;48.544;8.918;2023-05-23T10:58:19;97466.97;;;17.90;79.01
50774;BME280;36745;48.544;8.918;2023-05-23T11:01:40;97469.25;;;18.27;79.37
50774;BME280;36745;48.544;8.918;2023-05-23T11:05:20;97464.66;;;18.90;80.32
50774;BME280;36745;48.544;8.918;2023-05-23T11:08:41;97459.19;;;19.27;79.34
50774;BME280;36745;48.544;8.918;2023-05-23T11:12:06;97460.22;;;19.04;77.23
50774;BME280;36745;48.544;8.918;2023-05-23T11:15:26;97461.53;;;18.82;75.08
50774;BME280;36745;48.544;8.918;2023-05-23T11:18:45;97464.50;;;18.33;74.37
50774;BME280;36745;48.544;8.918;2023-05-23T11:22:08;97461.41;;;18.31;73.19
50774;BME280;36745;48.544;8.918;2023-05-23T11:25:50;97458.41;;;18.14;73.64
50774;BME280;36745;48.544;8.918;2023-05-23T11:29:15;97451.72;;;18.26;73.81
50774;BME280;36745;48.544;8.918;2023-05-23T11:32:35;97454.44;;;18.41;73.65
50774;BME280;36745;48.544;8.918;2023-05-23T11:35:55;97445.56;;;18.63;73.88
50774;BME280;36745;48.544;8.918;2023-05-23T11:39:15;97454.72;;;18.63;73.78
50774;BME280;36745;48.544;8.918;2023-05-23T11:42:40;97451.66;;;18.61;72.96
50774;BME280;36745;48.544;8.918;2023-05-23T11:46:07;97455.13;;;18.76;72.36
50774;BME280;36745;48.544;8.918;2023-05-23T11:49:30;97454.84;;;19.00;71.19
50774;BME280;36745;48.544;8.918;2023-05-23T11:52:50;97444.09;;;19.19;70.24
50774;BME280;36745;48.544;8.918;2023-05-23T11:56:10;97441.59;;;19.21;70.61
50774;BME280;36745;48.544;8.918;2023-05-23T11:59:30;97435.91;;;19.10;70.32
50774;BME280;36745;48.544;8.918;2023-05-23T12:02:50;97441.81;;;18.92;70.37
50774;BME280;36745;48.544;8.918;2023-05-23T12:06:10;97445.31;;;18.86;69.79
50774;BME280;36745;48.544;8.918;2023-05-23T12:09:29;97439.63;;;19.27;70.69
50774;BME280;36745;48.544;8.918;2023-05-23T12:12:50;97442.06;;;19.45;69.34
50774;BME280;36745;48.544;8.918;2023-05-23T12:16:12;97449.25;;;19.26;67.76
50774;BME280;36745;48.544;8.918;2023-05-23T12:19:32;97441.22;;;18.82;66.73
50774;BME280;36745;48.544;8.918;2023-05-23T12:22:55;97439.56;;;18.70;68.71
50774;BME280;36745;48.544;8.918;2023-05-23T12:26:16;97441.16;;;18.76;68.23
50774;BME280;36745;48.544;8.918;2023-05-23T12:29:35;97438.41;;;19.08;69.01
50774;BME280;36745;48.544;8.918;2023-05-23T12:32:56;97441.13;;;19.28;68.00
50774;BME280;36745;48.544;8.918;2023-05-23T12:36:24;97438.84;;;19.26;66.53
50774;BME280;36745;48.544;8.918;2023-05-23T12:39:44;97435.09;;;19.35;66.52
50774;BME280;36745;48.544;8.918;2023-05-23T12:43:08;97431.69;;;19.51;66.94
50774;BME280;36745;48.544;8.918;2023-05-23T12:46:28;97438.16;;;19.37;65.48
50774;BME280;36745;48.544;8.918;2023-05-23T12:49:48;97436.66;;;18.84;64.52
50774;BME280;36745;48.544;8.918;2023-05-23T12:53:08;97434.97;;;18.93;66.57
50774;BME280;36745;48.544;8.918;2023-05-23T12:56:28;97432.50;;;19.26;64.99
50774;BME280;36745;48.544;8.918;2023-05-23T12:59:48;97429.44;;;18.98;64.15
50774;BME280;36745;48.544;8.918;2023-05-23T13:03:08;97431.25;;;18.75;64.21
50774;BME280;36745;48.544;8.918;2023-05-23T13:06:27;97432.41;;;18.89;63.85
50774;BME280;36745;48.544;8.918;2023-05-23T13:09:47;97428.09;;;19.19;63.50
50774;BME280;36745;48.544;8.918;2023-05-23T13:13:07;97419.19;;;19.47;62.76
50774;BME280;36745;48.544;8.918;2023-05-23T13:16:27;97420.88;;;19.39;63.11
50774;BME280;36745;48.544;8.918;2023-05-23T13:19:47;97418.22;;;19.24;61.67
50774;BME280;36745;48.544;8.918;2023-05-23T13:23:07;97424.94;;;19.06;61.92
50774;BME280;36745;48.544;8.918;2023-05-23T13:26:27;97432.66;;;19.17;63.25
50774;BME280;36745;48.544;8.918;2023-05-23T13:29:47;97426.53;;;19.13;61.89
50774;BME280;36745;48.544;8.918;2023-05-23T13:33:07;97431.06;;;18.84;61.07
50774;BME280;36745;48.544;8.918;2023-05-23T13:36:26;97433.09;;;18.84;62.15
50774;BME280;36745;48.544;8.918;2023-05-23T13:39:46;97431.31;;;18.81;61.61
50774;BME280;36745;48.544;8.918;2023-05-23T13:43:06;97425.88;;;19.29;62.58
50774;BME280;36745;48.544;8.918;2023-05-23T13:46:26;97421.81;;;19.56;61.28
50774;BME280;36745;48.544;8.918;2023-05-23T13:49:46;97417.78;;;19.31;59.03
50774;BME280;36745;48.544;8.918;2023-05-23T13:53:06;97420.50;;;19.20;59.42
50774;BME280;36745;48.544;8.918;2023-05-23T13:56:32;97405.72;;;19.45;59.91
50774;BME280;36745;48.544;8.918;2023-05-23T13:59:52;97411.84;;;19.49;60.21
50774;BME280;36745;48.544;8.918;2023-05-23T14:03:12;97400.25;;;19.67;60.36
50774;BME280;36745;48.544;8.918;2023-05-23T14:06:34;97408.56;;;19.99;59.18
50774;BME280;36745;48.544;8.918;2023-05-23T14:09:55;97403.41;;;19.81;59.48
50774;BME280;36745;48.544;8.918;2023-05-23T14:13:15;97407.53;;;19.91;59.50
50774;BME280;36745;48.544;8.918;2023-05-23T14:16:35;97404.13;;;19.70;59.66
50774;BME280;36745;48.544;8.918;2023-05-23T14:19:55;97415.47;;;19.61;60.42
50774;BME280;36745;48.544;8.918;2023-05-23T14:23:15;97427.28;;;19.82;62.14
50774;BME280;36745;48.544;8.918;2023-05-23T14:26:35;97423.31;;;19.94;61.75
50774;BME280;36745;48.544;8.918;2023-05-23T14:29:55;97428.03;;;19.77;60.94
50774;BME280;36745;48.544;8.918;2023-05-23T14:33:14;97425.16;;;19.65;61.59
50774;BME280;36745;48.544;8.918;2023-05-23T14:36:34;97426.50;;;19.44;61.07
50774;BME280;36745;48.544;8.918;2023-05-23T14:39:55;97426.09;;;19.51;61.20
50774;BME280;36745;48.544;8.918;2023-05-23T14:43:15;97425.09;;;19.54;60.09
50774;BME280;36745;48.544;8.918;2023-05-23T14:46:35;97433.94;;;19.47;59.15
50774;BME280;36745;48.544;8.918;2023-05-23T14:49:55;97425.56;;;19.47;59.95
50774;BME280;36745;48.544;8.918;2023-05-23T14:53:15;97440.34;;;19.53;59.95
50774;BME280;36745;48.544;8.918;2023-05-23T14:56:35;97434.75;;;19.27;59.76
50774;BME280;36745;48.544;8.918;2023-05-23T14:59:56;97438.78;;;19.21;59.72
50774;BME280;36745;48.544;8.918;2023-05-23T15:03:16;97431.84;;;19.11;59.38
50774;BME280;36745;48.544;8.918;2023-05-23T15:06:37;97421.59;;;19.34;59.79
50774;BME280;36745;48.544;8.918;2023-05-23T15:09:57;97430.38;;;19.15;59.01
50774;BME280;36745;48.544;8.918;2023-05-23T15:13:17;97423.53;;;19.22;59.60
50774;BME280;36745;48.544;8.918;2023-05-23T15:16:37;97422.56;;;19.25;60.00
50774;BME280;36745;48.544;8.918;2023-05-23T15:19:56;97422.03;;;18.95;60.04
50774;BME280;36745;48.544;8.918;2023-05-23T15:23:16;97417.16;;;18.90;59.92
50774;BME280;36745;48.544;8.918;2023-05-23T15:26:36;97419.75;;;18.94;59.66
50774;BME280;36745;48.544;8.918;2023-05-23T15:29:56;97409.22;;;19.09;60.13
50774;BME280;36745;48.544;8.918;2023-05-23T15:33:16;97403.00;;;19.25;59.30
50774;BME280;36745;48.544;8.918;2023-05-23T15:36:36;97411.00;;;19.12;59.02
50774;BME280;36745;48.544;8.918;2023-05-23T15:39:55;97410.13;;;19.00;59.39
50774;BME280;36745;48.544;8.918;2023-05-23T15:43:15;97402.63;;;19.12;59.61
50774;BME280;36745;48.544;8.918;2023-05-23T15:46:35;97400.53;;;19.38;60.29
50774;BME280;36745;48.544;8.918;2023-05-23T15:49:55;97408.97;;;19.44;60.18
50774;BME280;36745;48.544;8.918;2023-05-23T15:53:15;97410.47;;;19.39;59.75
50774;BME280;36745;48.544;8.918;2023-05-23T15:56:34;97403.69;;;19.14;60.16
50774;BME280;36745;48.544;8.918;2023-05-23T15:59:54;97410.47;;;19.39;60.24
50774;BME280;36745;48.544;8.918;2023-05-23T16:03:14;97407.00;;;19.50;59.84
50774;BME280;36745;48.544;8.918;2023-05-23T16:06:34;97401.66;;;19.46;59.89
50774;BME280;36745;48.544;8.918;2023-05-23T16:09:55;97404.72;;;19.48;59.39
50774;BME280;36745;48.544;8.918;2023-05-23T16:13:15;97408.50;;;19.45;59.53
50774;BME280;36745;48.544;8.918;2023-05-23T16:16:34;97406.84;;;19.59;59.63
50774;BME280;36745;48.544;8.918;2023-05-23T16:19:54;97405.59;;;19.65;59.73
50774;BME280;36745;48.544;8.918;2023-05-23T16:23:14;97406.56;;;19.57;59.22
50774;BME280;36745;48.544;8.918;2023-05-23T16:26:34;97404.22;;;19.18;58.61
50774;BME280;36745;48.544;8.918;2023-05-23T16:29:54;97408.53;;;18.88;58.68
50774;BME280;36745;48.544;8.918;2023-05-23T16:33:13;97410.72;;;18.78;58.77
50774;BME280;36745;48.544;8.918;2023-05-23T16:36:33;97408.53;;;18.62;59.00
50774;BME280;36745;48.544;8.918;2023-05-23T16:39:53;97396.78;;;18.58;59.24
50774;BME280;36745;48.544;8.918;2023-05-23T16:43:13;97402.66;;;18.60;59.57
50774;BME280;36745;48.544;8.918;2023-05-23T16:46:33;97401.66;;;18.63;59.34
50774;BME280;36745;48.544;8.918;2023-05-23T16:49:53;97396.38;;;18.65;59.67
50774;BME280;36745;48.544;8.918;2023-05-23T16:53:12;97397.38;;;18.62;60.41
50774;BME280;36745;48.544;8.918;2023-05-23T16:56:32;97399.59;;;18.58;60.30
50774;BME280;36745;48.544;8.918;2023-05-23T16:59:52;97398.19;;;18.48;60.44
50774;BME280;36745;48.544;8.918;2023-05-23T17:03:12;97394.56;;;18.42;60.25
50774;BME280;36745;48.544;8.918;2023-05-23T17:06:32;97402.81;;;18.51;60.75
50774;BME280;36745;48.544;8.918;2023-05-23T17:09:51;97405.84;;;18.53;60.78
50774;BME280;36745;48.544;8.918;2023-05-23T17:13:11;97405.31;;;18.49;60.64
50774;BME280;36745;48.544;8.918;2023-05-23T17:16:31;97405.41;;;18.34;60.59
50774;BME280;36745;48.544;8.918;2023-05-23T17:19:51;97412.19;;;18.28;61.06
50774;BME280;36745;48.544;8.918;2023-05-23T17:23:11;97411.69;;;18.29;61.22
50774;BME280;36745;48.544;8.918;2023-05-23T17:26:31;97425.28;;;18.22;61.98
50774;BME280;36745;48.544;8.918;2023-05-23T17:29:51;97420.56;;;18.28;61.93
50774;BME280;36745;48.544;8.918;2023-05-23T17:33:11;97419.72;;;18.22;62.42
50774;BME280;36745;48.544;8.918;2023-05-23T17:36:31;97423.75;;;18.21;63.41
50774;BME280;36745;48.544;8.918;2023-05-23T17:39:52;97421.53;;;18.04;64.02
50774;BME280;36745;48.544;8.918;2023-05-23T17:43:12;97422.34;;;17.90;65.02
50774;BME280;36745;48.544;8.918;2023-05-23T17:46:32;97425.88;;;17.71;66.87
50774;BME280;36745;48.544;8.918;2023-05-23T17:49:52;97434.19;;;17.65;66.36